Terminal Aerodrome Forecast
Issued by NWS

Home | Current Version | Previous Version | Text Only | Print | Product List | Glossary On
Versions: 1 2 3 4 5 6 7 8 9 10 11 12 13 14 15 16 17 18 19 20
000
FTUS46 KMTR 281700 AAA
TAFMRY
TAF AMD
KMRY 281752Z 2818/0118 VRB05KT 5SM -SHRA FEW017 BKN030 BKN035
      TEMPO 2818/2822 4SM +SHRA BR BKN025
     FM282200 26009KT P6SM -SHRA FEW020 BKN025 BKN035
      TEMPO 2822/0102 +SHRA BKN025
     FM010200 VRB05KT P6SM VCSH BKN025 BKN050
     FM010700 09004KT P6SM FEW025=

USA.gov is the U.S. government's official web portal to all federal, state and local government web resources and services.